Pagrindinis puslapis
METAR-TAF:

METAR-TAF

Oro uostai :

Al-Hasa, Saudo Arabija

platuma: 25-18N, ilguma: 049-29E, Aukštis: 179 m

Dabartinis oras

Ataskaita buvo paskelbta 1 valandą ir 7 minutes, ne 08:00 UTC
Vėjas 5 kt iš Šiaurės Rytų
Temperatūra 20°C
Drėgmė 43%
Slėgis 1018 hPa
Matomumas 10 km arba daugiau
nėra debesų žemiau 1500 m ir nėra kamuolinių lietaus debesų

METAR: OEAH 210800Z 05005KT CAVOK 20/07 Q1018 NOSIG

Laikas: 12:07 (09:07 UTC)

Prognozė

Ataskaita buvo paskelbta 10 valandos ir 7 minutes, ne 23:00 UTC
Prognozė galioja nuo 21 metu 00 UTC su 22 metu 06 UTC
Vėjas 3 kt nuo kintamojo kryptimis
Matomumas: 6000 m
Laikinai
nuo 21 metu 00 UTC su 21 metu 06 UTC
Matomumas: 3000 m
rūkana
Tikimybė 30% :
Laikinai
nuo 21 metu 00 UTC su 21 metu 03 UTC
Matomumas: 0800 m
rūkas
Tapsmas
nuo 21 metu 06 UTC su 21 metu 08 UTC
Vėjas 12 kt iš Rytų
Tapsmas
nuo 21 metu 18 UTC su 21 metu 20 UTC
Vėjas 8 kt iš Pietų

TAF: OEAH 202300Z 2100/2206 VRB03KT 6000 NSC TEMPO 2100/2106 3000 BR PROB30 TEMPO 2100/2103 0800 FG BECMG 2106/2108 08012KT BECMG 2118/2120 19008KT

Orai ataskaitas ir orų prognozės (METAR, TAF).

turimą stotys yra geltonos ir raudonos taškus žemėlapyje.

Perkelti pele per norėdami pamatyti stoties vardą.

Tada spustelėkite, norėdami matyti oro stebėjimo ir prognozės.

Norėdami pakeisti žemėlapį: spustelėkite ant žalios mygtukų su juodo kryžiaus žemyn,; žalią mygtuką su brūkšneliu, jei norite nutolinti; arba žalių rodyklių gretimoms žemėlapius.


METAR-TAF: